createdAt,value
2018-11-13T00:01:23.532Z,11.24
2018-11-13T00:03:51.773Z,11.12
2018-11-13T00:06:19.994Z,11.13
2018-11-13T00:08:48.801Z,11.25
2018-11-13T00:11:17.075Z,11.32
2018-11-13T00:13:45.194Z,11.39
2018-11-13T00:16:13.375Z,11.36
2018-11-13T00:18:41.622Z,11.27
2018-11-13T00:21:09.880Z,11.30
2018-11-13T00:23:38.017Z,11.31
2018-11-13T00:26:06.247Z,11.16
2018-11-13T00:28:34.480Z,11.11
2018-11-13T00:31:02.675Z,11.13
2018-11-13T00:33:30.894Z,11.22
2018-11-13T00:35:59.152Z,11.08
2018-11-13T00:38:27.326Z,11.12
2018-11-13T00:40:56.126Z,11.11
2018-11-13T00:43:24.297Z,11.13
2018-11-13T00:45:55.913Z,10.97
2018-11-13T00:48:23.647Z,10.89
2018-11-13T00:50:51.795Z,10.81
2018-11-13T00:53:20.002Z,10.76
2018-11-13T00:55:48.118Z,10.78
2018-11-13T00:58:16.267Z,10.78
2018-11-13T01:00:44.492Z,10.86
2018-11-13T01:03:12.597Z,10.79
2018-11-13T01:05:40.759Z,10.83
2018-11-13T01:08:08.915Z,10.84
2018-11-13T01:10:37.231Z,10.81
2018-11-13T01:13:05.784Z,10.80
2018-11-13T01:15:33.996Z,10.78
2018-11-13T01:18:02.135Z,10.74
2018-11-13T01:20:30.309Z,10.65
2018-11-13T01:22:58.499Z,10.54
2018-11-13T01:25:27.012Z,10.52
2018-11-13T01:27:55.188Z,10.53
2018-11-13T01:30:23.431Z,10.66
2018-11-13T01:32:51.741Z,10.54
2018-11-13T01:35:20.083Z,10.51
2018-11-13T01:37:48.293Z,10.43
2018-11-13T01:40:18.319Z,10.41
2018-11-13T01:42:46.441Z,10.41
2018-11-13T01:45:15.603Z,10.38
2018-11-13T01:47:43.746Z,10.43
2018-11-13T01:50:12.379Z,10.46
2018-11-13T01:52:40.538Z,10.47
2018-11-13T01:55:10.549Z,10.39
2018-11-13T01:57:38.693Z,10.48
2018-11-13T02:00:15.755Z,10.44
2018-11-13T02:02:44.799Z,10.51
2018-11-13T02:05:12.919Z,10.56
2018-11-13T02:07:41.255Z,10.57
2018-11-13T02:10:09.662Z,10.58
2018-11-13T02:12:37.836Z,10.52
2018-11-13T02:15:07.141Z,10.43
2018-11-13T02:17:35.531Z,10.43
2018-11-13T02:20:04.303Z,10.44
2018-11-13T02:22:32.406Z,10.60
2018-11-13T02:25:00.719Z,10.45
2018-11-13T02:27:28.824Z,10.52
2018-11-13T02:29:56.933Z,10.45
2018-11-13T02:32:25.059Z,10.56
2018-11-13T02:34:53.249Z,10.65
2018-11-13T02:37:21.918Z,10.63
2018-11-13T02:39:50.019Z,10.53
2018-11-13T02:42:18.145Z,10.52
2018-11-13T02:44:46.271Z,10.45
2018-11-13T02:47:14.529Z,10.45
2018-11-13T02:49:42.823Z,10.53
2018-11-13T02:52:11.035Z,10.60
2018-11-13T02:54:39.136Z,10.49
2018-11-13T02:57:07.263Z,10.57
2018-11-13T02:59:35.428Z,10.55
2018-11-13T03:02:03.658Z,10.55
2018-11-13T03:04:31.777Z,10.58
2018-11-13T03:06:59.904Z,10.48
2018-11-13T03:09:28.059Z,10.53
2018-11-13T03:11:56.295Z,10.57
2018-11-13T03:14:24.596Z,10.44
2018-11-13T03:16:52.697Z,10.37
2018-11-13T03:19:20.872Z,10.37
2018-11-13T03:21:49.180Z,10.40
2018-11-13T03:24:17.310Z,10.44
2018-11-13T03:26:45.500Z,10.55
2018-11-13T03:29:13.590Z,10.53
2018-11-13T03:31:41.899Z,10.50
2018-11-13T03:34:10.179Z,10.54
2018-11-13T03:36:38.794Z,10.41
2018-11-13T03:39:08.221Z,10.38
2018-11-13T03:41:36.594Z,10.40
2018-11-13T03:44:05.078Z,10.42
2018-11-13T03:46:33.199Z,10.37
2018-11-13T03:49:01.366Z,10.35
2018-11-13T03:51:29.546Z,10.37
2018-11-13T03:53:57.649Z,10.34
2018-11-13T03:56:25.810Z,10.29
2018-11-13T03:58:53.908Z,10.37
2018-11-13T04:01:22.045Z,10.40
2018-11-13T04:03:51.089Z,10.30
2018-11-13T04:06:19.216Z,10.34
2018-11-13T04:08:47.326Z,10.32
2018-11-13T04:11:15.478Z,10.46
2018-11-13T04:13:43.584Z,10.51
2018-11-13T04:16:11.673Z,10.44
2018-11-13T04:18:39.832Z,10.44
2018-11-13T04:21:07.969Z,10.55
2018-11-13T04:23:36.111Z,10.40
2018-11-13T04:26:04.253Z,10.51
2018-11-13T04:28:32.503Z,10.39
2018-11-13T04:31:00.817Z,10.37
2018-11-13T04:33:28.996Z,10.35
2018-11-13T04:35:57.254Z,10.35
2018-11-13T04:38:25.476Z,10.35
2018-11-13T04:40:53.604Z,10.39
2018-11-13T04:43:21.912Z,10.45
2018-11-13T04:45:50.095Z,10.49
2018-11-13T04:48:18.231Z,10.50
2018-11-13T04:50:46.351Z,10.46
2018-11-13T04:53:14.495Z,10.45
2018-11-13T04:55:42.634Z,10.55
2018-11-13T04:58:10.793Z,10.53
2018-11-13T05:00:38.932Z,10.44
2018-11-13T05:03:07.201Z,10.42
2018-11-13T05:05:35.323Z,10.34
2018-11-13T05:08:03.523Z,10.34
2018-11-13T05:10:31.715Z,10.33
2018-11-13T05:12:59.963Z,10.32
2018-11-13T05:15:28.167Z,10.32
2018-11-13T05:17:56.459Z,10.29
2018-11-13T05:20:24.597Z,10.34
2018-11-13T05:22:52.845Z,10.34
2018-11-13T05:25:21.509Z,10.32
2018-11-13T05:27:49.711Z,10.39
2018-11-13T05:30:22.079Z,10.34
2018-11-13T05:32:50.437Z,10.39
2018-11-13T05:35:19.657Z,10.30
2018-11-13T05:37:48.194Z,10.26
2018-11-13T05:40:18.103Z,10.29
2018-11-13T05:42:46.342Z,10.29
2018-11-13T05:45:15.865Z,10.44
2018-11-13T05:47:44.248Z,10.38
2018-11-13T05:50:13.754Z,10.44
2018-11-13T05:52:42.745Z,10.34
2018-11-13T05:55:11.225Z,10.35
2018-11-13T05:57:39.596Z,10.41
2018-11-13T06:00:12.392Z,10.36
2018-11-13T06:02:40.530Z,10.36
2018-11-13T06:05:09.362Z,10.43
2018-11-13T06:07:37.475Z,10.49
2018-11-13T06:10:06.751Z,10.46
2018-11-13T06:12:34.916Z,10.47
2018-11-13T06:15:03.072Z,10.44
2018-11-13T06:17:31.203Z,10.47
2018-11-13T06:19:59.331Z,10.53
2018-11-13T06:22:27.490Z,10.61
2018-11-13T06:24:55.633Z,10.50
2018-11-13T06:27:23.908Z,10.41
2018-11-13T06:29:52.174Z,10.49
2018-11-13T06:32:20.463Z,10.48
2018-11-13T06:34:48.824Z,10.58
2018-11-13T06:37:17.116Z,10.56
2018-11-13T06:39:45.517Z,10.48
2018-11-13T06:42:13.757Z,10.42
2018-11-13T06:44:41.985Z,10.40
2018-11-13T06:47:10.239Z,10.45
2018-11-13T06:49:38.503Z,10.50
2018-11-13T06:52:06.607Z,10.50
2018-11-13T06:54:46.346Z,10.50
2018-11-13T06:57:14.549Z,10.55
2018-11-13T06:59:42.708Z,10.45
2018-11-13T07:02:10.853Z,10.52
2018-11-13T07:04:39.007Z,10.43
2018-11-13T07:07:07.124Z,10.45
2018-11-13T07:09:35.302Z,10.44
2018-11-13T07:12:03.462Z,10.46
2018-11-13T07:14:31.644Z,10.52
2018-11-13T07:16:59.797Z,10.51
2018-11-13T07:19:27.982Z,10.48
2018-11-13T07:21:56.192Z,10.57
2018-11-13T07:24:24.322Z,10.46
2018-11-13T07:26:52.489Z,10.50
2018-11-13T07:29:20.692Z,10.54
2018-11-13T07:31:48.886Z,10.64
2018-11-13T07:34:17.136Z,10.62
2018-11-13T07:36:45.235Z,10.73
2018-11-13T07:39:13.367Z,10.81
2018-11-13T07:41:41.734Z,10.82
2018-11-13T07:44:09.866Z,10.85
2018-11-13T07:46:38.061Z,10.83
2018-11-13T07:49:06.134Z,10.76
2018-11-13T07:51:34.422Z,10.72
2018-11-13T07:54:02.818Z,10.68
2018-11-13T07:56:30.978Z,10.68
2018-11-13T07:58:59.120Z,10.71
2018-11-13T08:01:27.287Z,10.65
2018-11-13T08:03:55.468Z,10.76
2018-11-13T08:06:23.681Z,10.70
2018-11-13T08:08:51.867Z,10.69
2018-11-13T08:11:20.027Z,10.72
2018-11-13T08:13:48.236Z,10.79
2018-11-13T08:16:16.396Z,10.79
2018-11-13T08:18:44.577Z,10.76
2018-11-13T08:21:12.778Z,10.85
2018-11-13T08:23:40.908Z,10.80
2018-11-13T08:26:09.297Z,10.80
2018-11-13T08:28:37.502Z,10.94
2018-11-13T08:31:06.249Z,11.00
2018-11-13T08:33:34.370Z,11.00
2018-11-13T08:36:02.670Z,11.00
2018-11-13T08:38:30.765Z,11.06
2018-11-13T08:40:58.928Z,11.05
2018-11-13T08:43:27.068Z,11.01
2018-11-13T08:45:55.196Z,11.07
2018-11-13T08:48:23.320Z,11.04
2018-11-13T08:50:51.515Z,11.00
2018-11-13T08:53:19.646Z,11.01
2018-11-13T08:55:47.885Z,11.05
2018-11-13T08:58:16.071Z,11.02
2018-11-13T09:00:44.190Z,11.15
2018-11-13T09:03:12.317Z,11.07
2018-11-13T09:05:40.448Z,11.09
2018-11-13T09:08:08.633Z,11.08
2018-11-13T09:10:37.897Z,11.14
2018-11-13T09:13:06.473Z,11.20
2018-11-13T09:15:34.650Z,11.31
2018-11-13T09:18:02.797Z,11.55
2018-11-13T09:20:30.957Z,11.46
2018-11-13T09:22:59.171Z,11.59
2018-11-13T09:25:27.369Z,11.48
2018-11-13T09:27:55.553Z,11.45
2018-11-13T09:30:24.032Z,11.48
2018-11-13T09:32:52.162Z,11.48
2018-11-13T09:35:20.637Z,11.45
2018-11-13T09:37:48.793Z,11.36
2018-11-13T09:40:19.265Z,11.37
2018-11-13T09:42:48.639Z,11.36
2018-11-13T09:45:17.207Z,11.44
2018-11-13T09:47:45.371Z,11.44
2018-11-13T09:50:15.135Z,11.46
2018-11-13T09:52:44.643Z,11.48
2018-11-13T09:55:14.261Z,11.51
2018-11-13T09:57:42.525Z,11.55
2018-11-13T10:00:14.347Z,11.66
2018-11-13T10:02:44.057Z,11.57
2018-11-13T10:05:12.138Z,11.57
2018-11-13T10:07:39.944Z,11.65
2018-11-13T10:10:09.134Z,11.58
2018-11-13T10:12:37.354Z,11.64
2018-11-13T10:15:08.075Z,11.70
2018-11-13T10:17:36.226Z,11.72
2018-11-13T10:20:04.389Z,11.68
2018-11-13T10:22:32.576Z,11.69
2018-11-13T10:25:00.736Z,11.74
2018-11-13T10:27:28.926Z,11.84
2018-11-13T10:29:57.377Z,11.78
2018-11-13T10:32:25.526Z,11.83
2018-11-13T10:34:53.691Z,11.98
2018-11-13T10:37:21.959Z,11.80
2018-11-13T10:39:50.204Z,11.82
2018-11-13T10:42:18.322Z,11.95
2018-11-13T10:44:46.531Z,11.99
2018-11-13T10:47:14.709Z,11.89
2018-11-13T10:49:42.886Z,11.91
2018-11-13T10:52:11.018Z,11.89
2018-11-13T10:54:39.337Z,11.88
2018-11-13T10:57:07.573Z,11.84
2018-11-13T10:59:35.725Z,11.97
2018-11-13T11:03:11.878Z,12.07
2018-11-13T11:05:40.242Z,11.92
2018-11-13T11:08:08.473Z,12.02
2018-11-13T11:10:36.638Z,11.93
2018-11-13T11:13:05.489Z,12.08
2018-11-13T11:15:33.408Z,12.03
2018-11-13T11:18:01.627Z,12.06
2018-11-13T11:20:29.801Z,12.15
2018-11-13T11:22:57.954Z,12.22
2018-11-13T11:25:26.317Z,12.30
2018-11-13T11:27:54.631Z,12.25
2018-11-13T11:30:22.707Z,12.25
2018-11-13T11:32:51.308Z,12.22
2018-11-13T11:35:19.442Z,12.27
2018-11-13T11:37:47.617Z,12.20
2018-11-13T11:40:15.802Z,12.18
2018-11-13T11:42:43.978Z,12.18
2018-11-13T11:45:13.443Z,12.18
2018-11-13T11:47:41.740Z,12.21
2018-11-13T11:50:10.972Z,12.17
2018-11-13T11:52:39.184Z,12.21
2018-11-13T11:55:08.213Z,12.09
2018-11-13T11:57:36.476Z,12.06
2018-11-13T12:00:07.070Z,12.22
2018-11-13T12:02:35.248Z,12.23
2018-11-13T12:05:03.569Z,12.21
2018-11-13T12:07:31.899Z,12.08
2018-11-13T12:10:00.293Z,12.23
2018-11-13T12:12:28.501Z,12.20
2018-11-13T12:14:56.842Z,12.19
2018-11-13T12:17:25.055Z,12.15
2018-11-13T12:19:53.431Z,12.17
2018-11-13T12:22:21.660Z,12.47
2018-11-13T12:24:49.876Z,12.40
2018-11-13T12:27:18.293Z,12.50
2018-11-13T12:29:46.512Z,12.82
2018-11-13T12:32:14.719Z,12.97
2018-11-13T12:34:42.876Z,13.04
2018-11-13T12:37:11.079Z,13.07
2018-11-13T12:39:39.345Z,13.11
2018-11-13T12:42:07.644Z,12.89
2018-11-13T12:44:35.799Z,12.87
2018-11-13T12:47:04.261Z,12.62
2018-11-13T12:49:32.435Z,12.70
2018-11-13T12:52:06.028Z,12.84
2018-11-13T12:54:34.217Z,12.83
2018-11-13T12:57:02.446Z,13.04
2018-11-13T12:59:30.663Z,13.03
2018-11-13T13:01:58.815Z,13.07
2018-11-13T13:04:27.057Z,13.11
2018-11-13T13:06:55.218Z,13.02
2018-11-13T13:09:23.394Z,12.98
2018-11-13T13:11:52.679Z,12.96
2018-11-13T13:14:20.819Z,12.95
2018-11-13T13:16:48.979Z,13.10
2018-11-13T13:19:17.184Z,13.10
2018-11-13T13:21:45.323Z,13.15
2018-11-13T13:24:13.483Z,13.28
2018-11-13T13:26:41.665Z,13.30
2018-11-13T13:29:09.840Z,13.32
2018-11-13T13:31:38.026Z,13.24
2018-11-13T13:34:06.175Z,13.15
2018-11-13T13:36:34.501Z,13.15
2018-11-13T13:39:02.702Z,13.08
2018-11-13T13:41:30.970Z,13.32
2018-11-13T13:43:59.168Z,13.42
2018-11-13T13:46:27.327Z,13.49
2018-11-13T13:48:55.474Z,13.25
2018-11-13T13:51:23.647Z,13.29
2018-11-13T13:53:51.987Z,13.22
2018-11-13T13:56:20.081Z,13.05
2018-11-13T13:58:48.383Z,13.08
2018-11-13T14:01:16.610Z,13.12
2018-11-13T14:03:44.977Z,13.07
2018-11-13T14:06:13.258Z,12.92
2018-11-13T14:08:41.947Z,12.77
2018-11-13T14:11:10.074Z,12.96
2018-11-13T14:13:38.250Z,12.95
2018-11-13T14:16:06.728Z,12.92
2018-11-13T14:18:34.936Z,12.90
2018-11-13T14:21:03.235Z,12.92
2018-11-13T14:23:31.265Z,12.88
2018-11-13T14:25:59.748Z,12.85
2018-11-13T14:28:27.929Z,12.81
2018-11-13T14:30:56.101Z,12.81
2018-11-13T14:33:24.245Z,12.76
2018-11-13T14:35:52.410Z,12.76
2018-11-13T14:38:20.611Z,12.59
2018-11-13T14:40:49.208Z,12.55
2018-11-13T14:43:17.373Z,12.52
2018-11-13T14:45:46.173Z,12.46
2018-11-13T14:48:14.418Z,12.30
2018-11-13T14:50:43.259Z,12.19
2018-11-13T14:53:12.123Z,12.22
2018-11-13T14:55:42.173Z,12.18
2018-11-13T14:58:11.459Z,12.12
2018-11-13T15:00:40.037Z,12.05
2018-11-13T15:03:09.658Z,12.07
2018-11-13T15:05:37.819Z,12.24
2018-11-13T15:08:07.178Z,12.03
2018-11-13T15:10:40.140Z,12.08
2018-11-13T15:13:08.725Z,12.06
2018-11-13T15:15:36.849Z,12.04
2018-11-13T15:18:05.325Z,12.13
2018-11-13T15:20:33.566Z,12.00
2018-11-13T15:23:01.801Z,11.90
2018-11-13T15:25:30.033Z,11.89
2018-11-13T15:27:58.155Z,11.90
2018-11-13T15:30:28.169Z,11.96
2018-11-13T15:32:59.750Z,11.93
2018-11-13T15:35:27.954Z,12.21
2018-11-13T15:37:56.174Z,12.32
2018-11-13T15:40:26.772Z,12.31
2018-11-13T15:42:54.903Z,12.21
2018-11-13T15:45:23.088Z,12.09
2018-11-13T15:47:52.118Z,12.06
2018-11-13T15:50:24.703Z,11.91
2018-11-13T15:52:52.922Z,11.86
2018-11-13T15:55:21.092Z,11.75
2018-11-13T15:57:49.546Z,11.73
2018-11-13T16:00:23.915Z,11.56
2018-11-13T16:02:52.580Z,11.52
2018-11-13T16:05:26.227Z,11.44
2018-11-13T16:07:55.576Z,11.52
2018-11-13T16:10:23.946Z,11.38
2018-11-13T16:12:52.187Z,11.31
2018-11-13T16:15:21.408Z,11.30
2018-11-13T16:17:50.368Z,11.01
2018-11-13T16:20:18.690Z,10.89
2018-11-13T16:22:46.835Z,10.76
2018-11-13T16:25:15.011Z,10.74
2018-11-13T16:27:43.197Z,10.73
2018-11-13T16:30:15.370Z,10.87
2018-11-13T16:32:44.522Z,11.02
2018-11-13T16:35:13.829Z,10.92
2018-11-13T16:37:43.268Z,10.94
2018-11-13T16:40:28.335Z,11.06
2018-11-13T16:42:56.469Z,11.01
2018-11-13T16:45:25.468Z,11.13
2018-11-13T16:47:54.240Z,10.92
2018-11-13T16:50:23.548Z,10.99
2018-11-13T16:52:51.836Z,11.06
2018-11-13T16:55:25.261Z,11.06
2018-11-13T16:57:54.059Z,11.12
2018-11-13T17:00:22.941Z,11.10
2018-11-13T17:02:51.119Z,11.21
2018-11-13T17:05:20.319Z,11.24
2018-11-13T17:07:48.470Z,11.26
2018-11-13T17:10:18.052Z,11.30
2018-11-13T17:12:46.492Z,11.32
2018-11-13T17:15:17.478Z,11.30
2018-11-13T17:17:46.546Z,11.26
2018-11-13T17:20:15.057Z,11.23
2018-11-13T17:22:43.706Z,11.30
2018-11-13T17:25:13.197Z,11.18
2018-11-13T17:27:42.510Z,11.23
2018-11-13T17:30:12.901Z,11.15
2018-11-13T17:32:41.552Z,11.13
2018-11-13T17:35:10.842Z,11.15
2018-11-13T17:37:38.992Z,11.08
2018-11-13T17:40:09.944Z,11.12
2018-11-13T17:42:38.241Z,11.06
2018-11-13T17:45:09.171Z,10.89
2018-11-13T17:47:37.587Z,10.89
2018-11-13T17:50:10.611Z,10.86
2018-11-13T17:52:38.794Z,10.73
2018-11-13T17:55:14.783Z,10.71
2018-11-13T17:57:43.936Z,10.60
2018-11-13T18:00:18.053Z,10.69
2018-11-13T18:02:47.533Z,10.52
2018-11-13T18:05:16.048Z,10.49
2018-11-13T18:07:44.617Z,10.51
2018-11-13T18:10:12.762Z,10.48
2018-11-13T18:12:40.945Z,10.32
2018-11-13T18:15:12.468Z,10.28
2018-11-13T18:17:40.610Z,10.22
2018-11-13T18:20:10.922Z,10.21
2018-11-13T18:22:39.392Z,10.10
2018-11-13T18:25:08.190Z,10.09
2018-11-13T18:27:37.135Z,10.07
2018-11-13T18:30:07.807Z,10.02
2018-11-13T18:32:36.004Z,10.07
2018-11-13T18:35:04.325Z,9.97
2018-11-13T18:37:32.610Z,9.85
2018-11-13T18:40:00.736Z,9.84
2018-11-13T18:42:28.979Z,9.79
2018-11-13T18:44:57.347Z,9.83
2018-11-13T18:47:25.541Z,9.73
2018-11-13T18:49:53.782Z,9.81
2018-11-13T18:52:22.153Z,9.78
2018-11-13T18:54:50.406Z,9.76
2018-11-13T18:57:18.657Z,9.74
2018-11-13T18:59:46.916Z,9.65
2018-11-13T19:02:15.240Z,9.62
2018-11-13T19:04:43.745Z,9.59
2018-11-13T19:07:13.074Z,9.61
2018-11-13T19:09:41.295Z,9.73
2018-11-13T19:12:09.552Z,9.56
2018-11-13T19:14:37.822Z,9.62
2018-11-13T19:17:06.067Z,9.60
2018-11-13T19:19:34.439Z,9.58
2018-11-13T19:22:02.735Z,9.52
2018-11-13T19:24:30.991Z,9.56
2018-11-13T19:26:59.240Z,9.48
2018-11-13T19:29:27.590Z,9.44
2018-11-13T19:31:55.790Z,9.33
2018-11-13T19:34:24.390Z,9.45
2018-11-13T19:36:52.820Z,9.41
2018-11-13T19:39:21.319Z,9.39
2018-11-13T19:41:49.613Z,9.30
2018-11-13T19:44:17.949Z,9.23
2018-11-13T19:46:46.262Z,9.29
2018-11-13T19:49:14.579Z,9.25
2018-11-13T19:51:43.122Z,9.33
2018-11-13T19:54:11.412Z,9.25
2018-11-13T19:56:40.682Z,9.24
2018-11-13T19:59:08.999Z,9.17
2018-11-13T20:01:37.436Z,9.16
2018-11-13T20:04:06.235Z,9.14
2018-11-13T20:06:34.451Z,9.13
2018-11-13T20:09:03.445Z,9.20
2018-11-13T20:11:35.924Z,9.25
2018-11-13T20:14:04.209Z,9.21
2018-11-13T20:16:32.745Z,9.22
2018-11-13T20:19:00.998Z,9.11
2018-11-13T20:21:29.334Z,9.18
2018-11-13T20:23:58.563Z,9.10
2018-11-13T20:26:26.876Z,9.08
2018-11-13T20:28:55.393Z,9.06
2018-11-13T20:31:23.721Z,9.11
2018-11-13T20:33:51.970Z,9.11
2018-11-13T20:36:20.296Z,9.19
2018-11-13T20:38:48.587Z,9.16
2018-11-13T20:41:16.951Z,9.11
2018-11-13T20:43:45.230Z,9.07
2018-11-13T20:46:13.912Z,9.04
2018-11-13T20:48:42.853Z,8.94
2018-11-13T20:51:11.142Z,9.10
2018-11-13T20:53:39.540Z,8.90
2018-11-13T20:56:07.822Z,8.90
2018-11-13T20:58:36.123Z,8.82
2018-11-13T21:01:04.406Z,8.94
2018-11-13T21:03:32.707Z,8.85
2018-11-13T21:06:01.045Z,8.84
2018-11-13T21:08:29.281Z,8.80
2018-11-13T21:10:59.310Z,8.77
2018-11-13T21:13:27.265Z,8.73
2018-11-13T21:15:55.818Z,8.66
2018-11-13T21:18:24.273Z,8.58
2018-11-13T21:20:52.527Z,8.53
2018-11-13T21:23:20.817Z,8.63
2018-11-13T21:25:49.049Z,8.67
2018-11-13T21:28:17.410Z,8.55
2018-11-13T21:30:45.811Z,8.55
2018-11-13T21:33:14.703Z,8.39
2018-11-13T21:35:43.167Z,8.51
2018-11-13T21:38:11.431Z,8.38
2018-11-13T21:40:39.700Z,8.44
2018-11-13T21:43:08.078Z,8.48
2018-11-13T21:45:36.409Z,8.43
2018-11-13T21:48:05.216Z,8.40
2018-11-13T21:50:33.526Z,8.29
2018-11-13T21:53:02.590Z,8.25
2018-11-13T21:55:30.865Z,8.33
2018-11-13T21:57:59.015Z,8.27
2018-11-13T22:00:29.358Z,8.29
2018-11-13T22:03:00.004Z,8.14
2018-11-13T22:05:29.201Z,8.18
2018-11-13T22:07:57.458Z,8.25
2018-11-13T22:10:25.601Z,8.21
2018-11-13T22:12:54.138Z,8.22
2018-11-13T22:15:23.481Z,8.23
2018-11-13T22:17:51.535Z,8.13
2018-11-13T22:20:20.431Z,8.19
2018-11-13T22:22:49.523Z,8.19
2018-11-13T22:25:21.001Z,8.23
2018-11-13T22:27:50.352Z,8.08
2018-11-13T22:30:21.802Z,8.08
2018-11-13T22:32:49.977Z,8.17
2018-11-13T22:35:18.713Z,8.16
2018-11-13T22:37:47.011Z,8.21
2018-11-13T22:40:16.870Z,8.25
2018-11-13T22:42:45.245Z,8.10
2018-11-13T22:45:16.663Z,8.00
2018-11-13T22:47:44.896Z,8.12
2018-11-13T22:50:16.333Z,7.96
2018-11-13T22:52:44.900Z,8.00
2018-11-13T22:55:13.821Z,8.12
2018-11-13T22:57:42.951Z,8.09
2018-11-13T23:00:15.767Z,7.98
2018-11-13T23:02:43.801Z,7.95
2018-11-13T23:05:11.976Z,8.06
2018-11-13T23:07:40.183Z,8.07
2018-11-13T23:10:10.218Z,8.23
2018-11-13T23:12:38.526Z,8.12
2018-11-13T23:15:09.038Z,8.16
2018-11-13T23:17:37.162Z,8.21
2018-11-13T23:43:06.192Z,8.15
2018-11-13T23:45:34.602Z,8.13
2018-11-13T23:48:02.805Z,8.14
2018-11-13T23:50:31.059Z,8.36
2018-11-13T23:52:59.489Z,8.39
2018-11-13T23:55:27.876Z,8.42
2018-11-13T23:57:56.053Z,8.43
